Terminal Aerodrome Forecast
Issued by NWS

Home | Current Version | Previous Version | Text Only | Print | Product List | Glossary On
Versions: 1 2 3 4 5 6 7 8 9 10 11 12 13 14 15 16 17 18 19 20 21 22
967
FTUS43 KGRR 180211 AAA
TAFAZO
TAF AMD
KAZO 180211Z 1802/1824 23010KT P6SM VCSH BKN060
     FM180600 24010KT P6SM VCSH BKN025
     FM180900 26010KT P6SM VCSH BKN015
     FM181600 27012G20KT P6SM BKN030
     FM181900 27012G20KT P6SM BKN040=

USA.gov is the U.S. government's official web portal to all federal, state and local government web resources and services.